sensor_id;sensor_type;location;lat;lon;timestamp;temperature;humidity
22416;DHT22;12204;50.600;4.608;2023-05-07T00:01:38;23.60;74.40
22416;DHT22;12204;50.600;4.608;2023-05-07T00:06:41;23.50;74.60
22416;DHT22;12204;50.600;4.608;2023-05-07T00:11:45;23.60;74.70
22416;DHT22;12204;50.600;4.608;2023-05-07T00:16:49;23.60;74.80
22416;DHT22;12204;50.600;4.608;2023-05-07T00:21:53;23.60;74.50
22416;DHT22;12204;50.600;4.608;2023-05-07T00:26:57;23.60;74.70
22416;DHT22;12204;50.600;4.608;2023-05-07T00:32:02;23.60;75.00
22416;DHT22;12204;50.600;4.608;2023-05-07T00:37:06;23.50;75.60
22416;DHT22;12204;50.600;4.608;2023-05-07T00:42:10;23.50;75.60
22416;DHT22;12204;50.600;4.608;2023-05-07T00:47:15;23.50;75.30
22416;DHT22;12204;50.600;4.608;2023-05-07T00:52:21;23.60;75.40
22416;DHT22;12204;50.600;4.608;2023-05-07T00:57:28;23.60;75.10
22416;DHT22;12204;50.600;4.608;2023-05-07T01:02:33;23.60;75.40
22416;DHT22;12204;50.600;4.608;2023-05-07T01:07:39;23.60;75.70
22416;DHT22;12204;50.600;4.608;2023-05-07T01:12:44;23.50;75.50
22416;DHT22;12204;50.600;4.608;2023-05-07T01:17:50;23.50;75.60
22416;DHT22;12204;50.600;4.608;2023-05-07T01:23:03;23.50;75.10
22416;DHT22;12204;50.600;4.608;2023-05-07T01:28:07;23.50;75.00
22416;DHT22;12204;50.600;4.608;2023-05-07T01:33:14;23.50;75.40
22416;DHT22;12204;50.600;4.608;2023-05-07T01:38:21;23.50;75.80
22416;DHT22;12204;50.600;4.608;2023-05-07T01:43:25;23.50;75.80
22416;DHT22;12204;50.600;4.608;2023-05-07T01:48:29;23.50;76.00
22416;DHT22;12204;50.600;4.608;2023-05-07T01:53:37;23.50;75.20
22416;DHT22;12204;50.600;4.608;2023-05-07T01:58:42;23.50;75.70
22416;DHT22;12204;50.600;4.608;2023-05-07T02:03:45;23.50;76.10
22416;DHT22;12204;50.600;4.608;2023-05-07T02:08:57;23.50;76.40
22416;DHT22;12204;50.600;4.608;2023-05-07T02:14:02;23.50;76.00
22416;DHT22;12204;50.600;4.608;2023-05-07T02:19:06;23.50;76.00
22416;DHT22;12204;50.600;4.608;2023-05-07T02:24:11;23.50;76.00
22416;DHT22;12204;50.600;4.608;2023-05-07T02:29:15;23.50;75.90
22416;DHT22;12204;50.600;4.608;2023-05-07T02:34:20;23.50;76.20
22416;DHT22;12204;50.600;4.608;2023-05-07T02:39:25;23.50;75.50
22416;DHT22;12204;50.600;4.608;2023-05-07T02:44:28;23.50;75.70
22416;DHT22;12204;50.600;4.608;2023-05-07T02:49:33;23.50;75.80
22416;DHT22;12204;50.600;4.608;2023-05-07T02:54:39;23.50;75.90
22416;DHT22;12204;50.600;4.608;2023-05-07T02:59:42;23.50;75.80
22416;DHT22;12204;50.600;4.608;2023-05-07T03:04:48;23.50;76.50
22416;DHT22;12204;50.600;4.608;2023-05-07T03:09:53;23.50;75.70
22416;DHT22;12204;50.600;4.608;2023-05-07T03:14:56;23.50;75.70
22416;DHT22;12204;50.600;4.608;2023-05-07T03:20:00;23.50;75.60
22416;DHT22;12204;50.600;4.608;2023-05-07T03:25:06;23.50;75.50
22416;DHT22;12204;50.600;4.608;2023-05-07T03:30:12;23.50;75.60
22416;DHT22;12204;50.600;4.608;2023-05-07T03:35:16;23.50;75.70
22416;DHT22;12204;50.600;4.608;2023-05-07T03:40:22;23.50;75.60
22416;DHT22;12204;50.600;4.608;2023-05-07T03:45:28;23.40;75.80
22416;DHT22;12204;50.600;4.608;2023-05-07T03:50:41;23.40;75.80
22416;DHT22;12204;50.600;4.608;2023-05-07T03:55:46;23.40;76.00
22416;DHT22;12204;50.600;4.608;2023-05-07T04:00:49;23.40;75.90
22416;DHT22;12204;50.600;4.608;2023-05-07T04:06:00;23.40;76.00
22416;DHT22;12204;50.600;4.608;2023-05-07T04:11:07;23.40;76.00
22416;DHT22;12204;50.600;4.608;2023-05-07T04:16:12;23.40;75.90
22416;DHT22;12204;50.600;4.608;2023-05-07T04:21:16;23.50;75.90
22416;DHT22;12204;50.600;4.608;2023-05-07T04:26:23;23.40;75.90
22416;DHT22;12204;50.600;4.608;2023-05-07T04:31:27;23.40;75.80
22416;DHT22;12204;50.600;4.608;2023-05-07T04:36:30;23.40;75.80
22416;DHT22;12204;50.600;4.608;2023-05-07T04:41:40;23.40;75.90
22416;DHT22;12204;50.600;4.608;2023-05-07T04:46:44;23.40;75.90
22416;DHT22;12204;50.600;4.608;2023-05-07T04:51:47;23.40;75.80
22416;DHT22;12204;50.600;4.608;2023-05-07T04:56:56;23.40;75.80
22416;DHT22;12204;50.600;4.608;2023-05-07T05:01:59;23.40;75.80
22416;DHT22;12204;50.600;4.608;2023-05-07T05:07:03;23.40;75.60
22416;DHT22;12204;50.600;4.608;2023-05-07T05:12:09;23.50;75.60
22416;DHT22;12204;50.600;4.608;2023-05-07T05:17:13;23.40;75.40
22416;DHT22;12204;50.600;4.608;2023-05-07T05:22:16;23.40;75.50
22416;DHT22;12204;50.600;4.608;2023-05-07T05:27:21;23.40;75.40
22416;DHT22;12204;50.600;4.608;2023-05-07T05:32:25;23.40;75.50
22416;DHT22;12204;50.600;4.608;2023-05-07T05:37:31;23.40;75.50
22416;DHT22;12204;50.600;4.608;2023-05-07T05:42:40;23.40;75.40
22416;DHT22;12204;50.600;4.608;2023-05-07T05:47:44;23.40;75.40
22416;DHT22;12204;50.600;4.608;2023-05-07T05:52:48;23.40;75.40
22416;DHT22;12204;50.600;4.608;2023-05-07T05:57:56;23.40;75.40
22416;DHT22;12204;50.600;4.608;2023-05-07T06:03:01;23.40;75.40
22416;DHT22;12204;50.600;4.608;2023-05-07T06:08:04;23.40;76.30
22416;DHT22;12204;50.600;4.608;2023-05-07T06:13:11;23.40;75.50
22416;DHT22;12204;50.600;4.608;2023-05-07T06:18:15;23.40;75.50
22416;DHT22;12204;50.600;4.608;2023-05-07T06:23:19;23.50;75.70
22416;DHT22;12204;50.600;4.608;2023-05-07T06:28:25;23.40;75.70
22416;DHT22;12204;50.600;4.608;2023-05-07T06:33:30;23.40;75.50
22416;DHT22;12204;50.600;4.608;2023-05-07T06:38:35;23.40;74.90
22416;DHT22;12204;50.600;4.608;2023-05-07T06:43:40;23.40;74.60
22416;DHT22;12204;50.600;4.608;2023-05-07T06:48:59;23.40;73.80
22416;DHT22;12204;50.600;4.608;2023-05-07T06:54:03;23.40;73.10
22416;DHT22;12204;50.600;4.608;2023-05-07T06:59:10;23.30;72.90
22416;DHT22;12204;50.600;4.608;2023-05-07T07:04:15;23.30;72.80
22416;DHT22;12204;50.600;4.608;2023-05-07T07:09:25;23.30;72.80
22416;DHT22;12204;50.600;4.608;2023-05-07T07:14:30;23.30;72.80
22416;DHT22;12204;50.600;4.608;2023-05-07T07:19:34;23.30;72.80
22416;DHT22;12204;50.600;4.608;2023-05-07T07:24:38;23.20;72.80
22416;DHT22;12204;50.600;4.608;2023-05-07T07:29:45;23.20;73.00
22416;DHT22;12204;50.600;4.608;2023-05-07T07:34:49;23.20;73.30
22416;DHT22;12204;50.600;4.608;2023-05-07T07:39:53;23.20;73.30
22416;DHT22;12204;50.600;4.608;2023-05-07T07:44:58;23.20;73.80
22416;DHT22;12204;50.600;4.608;2023-05-07T07:50:06;23.20;73.30
22416;DHT22;12204;50.600;4.608;2023-05-07T07:55:12;23.20;73.60
22416;DHT22;12204;50.600;4.608;2023-05-07T08:00:17;23.20;73.90
22416;DHT22;12204;50.600;4.608;2023-05-07T08:05:26;23.20;74.10
22416;DHT22;12204;50.600;4.608;2023-05-07T08:10:31;23.20;74.10
22416;DHT22;12204;50.600;4.608;2023-05-07T08:15:43;23.20;74.00
22416;DHT22;12204;50.600;4.608;2023-05-07T08:20:47;23.20;74.00
22416;DHT22;12204;50.600;4.608;2023-05-07T08:25:55;23.20;73.90
22416;DHT22;12204;50.600;4.608;2023-05-07T08:31:00;23.20;74.10
22416;DHT22;12204;50.600;4.608;2023-05-07T08:36:08;23.20;74.00
22416;DHT22;12204;50.600;4.608;2023-05-07T08:41:12;23.20;73.90
22416;DHT22;12204;50.600;4.608;2023-05-07T08:46:21;23.20;74.00
22416;DHT22;12204;50.600;4.608;2023-05-07T08:51:29;23.20;74.00
22416;DHT22;12204;50.600;4.608;2023-05-07T08:56:33;23.20;74.20
22416;DHT22;12204;50.600;4.608;2023-05-07T09:01:38;23.10;73.90
22416;DHT22;12204;50.600;4.608;2023-05-07T09:06:42;23.10;73.90
22416;DHT22;12204;50.600;4.608;2023-05-07T09:11:48;23.20;74.00
22416;DHT22;12204;50.600;4.608;2023-05-07T09:16:55;23.10;73.90
22416;DHT22;12204;50.600;4.608;2023-05-07T09:21:59;23.20;74.30
22416;DHT22;12204;50.600;4.608;2023-05-07T09:27:10;23.20;74.20
22416;DHT22;12204;50.600;4.608;2023-05-07T09:32:18;23.20;74.40
22416;DHT22;12204;50.600;4.608;2023-05-07T09:37:22;23.20;74.70
22416;DHT22;12204;50.600;4.608;2023-05-07T09:42:26;23.20;75.00
22416;DHT22;12204;50.600;4.608;2023-05-07T09:47:37;23.20;75.70
22416;DHT22;12204;50.600;4.608;2023-05-07T09:52:44;23.30;75.60
22416;DHT22;12204;50.600;4.608;2023-05-07T09:57:50;23.30;75.90
22416;DHT22;12204;50.600;4.608;2023-05-07T10:02:57;23.20;76.90
22416;DHT22;12204;50.600;4.608;2023-05-07T10:08:11;23.30;78.20
22416;DHT22;12204;50.600;4.608;2023-05-07T10:13:17;23.30;77.30
22416;DHT22;12204;50.600;4.608;2023-05-07T10:18:27;23.40;77.10
22416;DHT22;12204;50.600;4.608;2023-05-07T10:23:41;23.60;75.40
22416;DHT22;12204;50.600;4.608;2023-05-07T10:28:53;23.50;75.90
22416;DHT22;12204;50.600;4.608;2023-05-07T10:34:07;23.40;77.00
22416;DHT22;12204;50.600;4.608;2023-05-07T10:39:13;23.30;77.80
22416;DHT22;12204;50.600;4.608;2023-05-07T10:44:25;23.30;78.60
22416;DHT22;12204;50.600;4.608;2023-05-07T10:49:36;23.20;78.30
22416;DHT22;12204;50.600;4.608;2023-05-07T10:54:46;23.20;78.30
22416;DHT22;12204;50.600;4.608;2023-05-07T10:59:50;23.10;77.50
22416;DHT22;12204;50.600;4.608;2023-05-07T11:05:20;23.20;78.40
22416;DHT22;12204;50.600;4.608;2023-05-07T11:10:51;23.20;78.40
22416;DHT22;12204;50.600;4.608;2023-05-07T11:16:04;23.30;78.40
22416;DHT22;12204;50.600;4.608;2023-05-07T11:21:31;23.30;79.30
22416;DHT22;12204;50.600;4.608;2023-05-07T11:27:03;23.40;80.00
22416;DHT22;12204;50.600;4.608;2023-05-07T11:32:07;23.40;81.10
22416;DHT22;12204;50.600;4.608;2023-05-07T11:37:19;23.40;79.20
22416;DHT22;12204;50.600;4.608;2023-05-07T11:42:32;23.30;79.00
22416;DHT22;12204;50.600;4.608;2023-05-07T11:47:37;23.40;79.80
22416;DHT22;12204;50.600;4.608;2023-05-07T11:52:51;23.40;80.30
22416;DHT22;12204;50.600;4.608;2023-05-07T11:57:55;23.40;80.30
22416;DHT22;12204;50.600;4.608;2023-05-07T12:03:03;23.40;80.80
22416;DHT22;12204;50.600;4.608;2023-05-07T12:08:13;23.40;81.10
22416;DHT22;12204;50.600;4.608;2023-05-07T12:13:18;23.50;80.80
22416;DHT22;12204;50.600;4.608;2023-05-07T12:18:23;23.40;80.60
22416;DHT22;12204;50.600;4.608;2023-05-07T12:23:28;23.40;80.60
22416;DHT22;12204;50.600;4.608;2023-05-07T12:28:37;23.40;80.90
22416;DHT22;12204;50.600;4.608;2023-05-07T12:33:41;23.40;80.30
22416;DHT22;12204;50.600;4.608;2023-05-07T12:38:49;23.40;79.80
22416;DHT22;12204;50.600;4.608;2023-05-07T12:43:56;23.40;80.10
22416;DHT22;12204;50.600;4.608;2023-05-07T12:49:00;23.40;79.00
22416;DHT22;12204;50.600;4.608;2023-05-07T12:54:05;23.30;78.80
22416;DHT22;12204;50.600;4.608;2023-05-07T12:59:08;23.40;78.70
22416;DHT22;12204;50.600;4.608;2023-05-07T13:04:12;23.30;78.20
22416;DHT22;12204;50.600;4.608;2023-05-07T13:09:16;23.30;78.00
22416;DHT22;12204;50.600;4.608;2023-05-07T13:14:20;23.30;77.90
22416;DHT22;12204;50.600;4.608;2023-05-07T13:19:23;23.30;77.60
22416;DHT22;12204;50.600;4.608;2023-05-07T13:24:28;23.20;77.50
22416;DHT22;12204;50.600;4.608;2023-05-07T13:29:32;23.30;77.50
22416;DHT22;12204;50.600;4.608;2023-05-07T13:34:35;23.30;77.30
22416;DHT22;12204;50.600;4.608;2023-05-07T13:39:40;23.30;77.30
22416;DHT22;12204;50.600;4.608;2023-05-07T13:44:44;23.30;77.10
22416;DHT22;12204;50.600;4.608;2023-05-07T13:49:47;23.20;76.90
22416;DHT22;12204;50.600;4.608;2023-05-07T13:54:53;23.20;76.80
22416;DHT22;12204;50.600;4.608;2023-05-07T13:59:58;23.20;76.70
22416;DHT22;12204;50.600;4.608;2023-05-07T14:05:02;23.20;76.50
22416;DHT22;12204;50.600;4.608;2023-05-07T14:10:08;23.10;75.90
22416;DHT22;12204;50.600;4.608;2023-05-07T14:15:13;23.10;75.70
22416;DHT22;12204;50.600;4.608;2023-05-07T14:20:17;22.90;75.00
22416;DHT22;12204;50.600;4.608;2023-05-07T14:25:22;22.80;74.90
22416;DHT22;12204;50.600;4.608;2023-05-07T14:30:26;22.80;74.90
22416;DHT22;12204;50.600;4.608;2023-05-07T14:35:30;22.90;74.80
22416;DHT22;12204;50.600;4.608;2023-05-07T14:40:35;22.80;74.30
22416;DHT22;12204;50.600;4.608;2023-05-07T14:45:38;22.80;74.50
22416;DHT22;12204;50.600;4.608;2023-05-07T14:50:41;22.80;74.70
22416;DHT22;12204;50.600;4.608;2023-05-07T14:55:47;22.80;74.60
22416;DHT22;12204;50.600;4.608;2023-05-07T15:00:51;22.90;74.60
22416;DHT22;12204;50.600;4.608;2023-05-07T15:05:54;22.90;74.80
22416;DHT22;12204;50.600;4.608;2023-05-07T15:10:59;22.90;74.80
22416;DHT22;12204;50.600;4.608;2023-05-07T15:16:03;23.00;74.90
22416;DHT22;12204;50.600;4.608;2023-05-07T15:21:06;23.10;75.40
22416;DHT22;12204;50.600;4.608;2023-05-07T15:26:12;23.10;75.60
22416;DHT22;12204;50.600;4.608;2023-05-07T15:31:16;23.10;75.70
22416;DHT22;12204;50.600;4.608;2023-05-07T15:36:20;23.00;74.50
22416;DHT22;12204;50.600;4.608;2023-05-07T15:41:25;22.90;74.50
22416;DHT22;12204;50.600;4.608;2023-05-07T15:46:29;22.90;75.60
22416;DHT22;12204;50.600;4.608;2023-05-07T15:51:34;23.10;75.50
22416;DHT22;12204;50.600;4.608;2023-05-07T15:56:39;23.10;75.40
22416;DHT22;12204;50.600;4.608;2023-05-07T16:01:43;23.10;75.00
22416;DHT22;12204;50.600;4.608;2023-05-07T16:06:47;23.10;75.40
22416;DHT22;12204;50.600;4.608;2023-05-07T16:11:51;23.20;75.90
22416;DHT22;12204;50.600;4.608;2023-05-07T16:16:55;23.20;76.60
22416;DHT22;12204;50.600;4.608;2023-05-07T16:21:59;23.30;76.80
22416;DHT22;12204;50.600;4.608;2023-05-07T16:27:04;23.20;76.70
22416;DHT22;12204;50.600;4.608;2023-05-07T16:32:08;23.20;76.30
22416;DHT22;12204;50.600;4.608;2023-05-07T16:37:11;23.10;75.70
22416;DHT22;12204;50.600;4.608;2023-05-07T16:42:16;23.00;75.10
22416;DHT22;12204;50.600;4.608;2023-05-07T16:47:20;23.00;74.50
22416;DHT22;12204;50.600;4.608;2023-05-07T16:52:23;23.10;74.80
22416;DHT22;12204;50.600;4.608;2023-05-07T16:57:28;23.10;74.40
22416;DHT22;12204;50.600;4.608;2023-05-07T17:02:32;23.10;74.00
22416;DHT22;12204;50.600;4.608;2023-05-07T17:07:36;23.20;73.70
22416;DHT22;12204;50.600;4.608;2023-05-07T17:12:41;23.20;73.70
22416;DHT22;12204;50.600;4.608;2023-05-07T17:17:45;23.20;73.50
22416;DHT22;12204;50.600;4.608;2023-05-07T17:22:48;23.20;73.60
22416;DHT22;12204;50.600;4.608;2023-05-07T17:27:53;23.20;73.70
22416;DHT22;12204;50.600;4.608;2023-05-07T17:32:57;23.20;74.20
22416;DHT22;12204;50.600;4.608;2023-05-07T17:38:17;23.20;74.20
22416;DHT22;12204;50.600;4.608;2023-05-07T17:43:22;23.20;74.40
22416;DHT22;12204;50.600;4.608;2023-05-07T17:48:26;23.20;75.00
22416;DHT22;12204;50.600;4.608;2023-05-07T17:53:29;23.20;74.90
22416;DHT22;12204;50.600;4.608;2023-05-07T17:58:34;23.20;75.10
22416;DHT22;12204;50.600;4.608;2023-05-07T18:03:58;23.20;75.10
22416;DHT22;12204;50.600;4.608;2023-05-07T18:09:02;23.30;75.50
22416;DHT22;12204;50.600;4.608;2023-05-07T18:14:07;23.20;75.40
22416;DHT22;12204;50.600;4.608;2023-05-07T18:19:10;23.30;75.70
22416;DHT22;12204;50.600;4.608;2023-05-07T18:24:14;23.20;75.90
22416;DHT22;12204;50.600;4.608;2023-05-07T18:29:19;23.20;76.20
22416;DHT22;12204;50.600;4.608;2023-05-07T18:34:22;23.20;76.20
22416;DHT22;12204;50.600;4.608;2023-05-07T18:39:26;23.20;76.20
22416;DHT22;12204;50.600;4.608;2023-05-07T18:44:30;23.20;76.40
22416;DHT22;12204;50.600;4.608;2023-05-07T18:49:38;23.20;76.40
22416;DHT22;12204;50.600;4.608;2023-05-07T18:54:41;23.20;76.50
22416;DHT22;12204;50.600;4.608;2023-05-07T18:59:47;23.20;76.60
22416;DHT22;12204;50.600;4.608;2023-05-07T19:04:51;23.20;76.90
22416;DHT22;12204;50.600;4.608;2023-05-07T19:09:55;23.20;77.10
22416;DHT22;12204;50.600;4.608;2023-05-07T19:15:08;23.30;77.20
22416;DHT22;12204;50.600;4.608;2023-05-07T19:20:13;23.30;77.40
22416;DHT22;12204;50.600;4.608;2023-05-07T19:25:16;23.30;77.40
22416;DHT22;12204;50.600;4.608;2023-05-07T19:30:21;23.30;77.50
22416;DHT22;12204;50.600;4.608;2023-05-07T19:35:25;23.30;77.50
22416;DHT22;12204;50.600;4.608;2023-05-07T19:40:29;23.30;77.60
22416;DHT22;12204;50.600;4.608;2023-05-07T19:45:34;23.30;77.70
22416;DHT22;12204;50.600;4.608;2023-05-07T19:50:38;23.30;77.80
22416;DHT22;12204;50.600;4.608;2023-05-07T19:55:42;23.30;77.60
22416;DHT22;12204;50.600;4.608;2023-05-07T20:00:46;23.30;77.70
22416;DHT22;12204;50.600;4.608;2023-05-07T20:05:50;23.30;77.60
22416;DHT22;12204;50.600;4.608;2023-05-07T20:10:55;23.30;77.70
22416;DHT22;12204;50.600;4.608;2023-05-07T20:16:01;23.30;77.80
22416;DHT22;12204;50.600;4.608;2023-05-07T20:21:05;23.30;77.80
22416;DHT22;12204;50.600;4.608;2023-05-07T20:26:08;23.30;77.90
22416;DHT22;12204;50.600;4.608;2023-05-07T20:31:13;23.30;78.00
22416;DHT22;12204;50.600;4.608;2023-05-07T20:36:17;23.30;78.00
22416;DHT22;12204;50.600;4.608;2023-05-07T20:41:21;23.30;78.00
22416;DHT22;12204;50.600;4.608;2023-05-07T20:46:27;23.30;78.10
22416;DHT22;12204;50.600;4.608;2023-05-07T20:51:31;23.30;78.10
22416;DHT22;12204;50.600;4.608;2023-05-07T20:56:34;23.30;78.20
22416;DHT22;12204;50.600;4.608;2023-05-07T21:01:39;23.30;78.30
22416;DHT22;12204;50.600;4.608;2023-05-07T21:06:43;23.30;78.20
22416;DHT22;12204;50.600;4.608;2023-05-07T21:11:47;23.30;78.00
22416;DHT22;12204;50.600;4.608;2023-05-07T21:16:51;23.40;78.10
22416;DHT22;12204;50.600;4.608;2023-05-07T21:21:55;23.30;78.00
22416;DHT22;12204;50.600;4.608;2023-05-07T21:26:59;23.40;78.30
22416;DHT22;12204;50.600;4.608;2023-05-07T21:32:05;23.40;78.40
22416;DHT22;12204;50.600;4.608;2023-05-07T21:37:08;23.40;78.50
22416;DHT22;12204;50.600;4.608;2023-05-07T21:42:11;23.30;78.20
22416;DHT22;12204;50.600;4.608;2023-05-07T21:47:16;23.40;78.50
22416;DHT22;12204;50.600;4.608;2023-05-07T21:52:20;23.30;78.70
22416;DHT22;12204;50.600;4.608;2023-05-07T21:57:26;23.30;78.70
22416;DHT22;12204;50.600;4.608;2023-05-07T22:02:31;23.30;78.90
22416;DHT22;12204;50.600;4.608;2023-05-07T22:07:35;23.40;78.90
22416;DHT22;12204;50.600;4.608;2023-05-07T22:12:39;23.40;79.10
22416;DHT22;12204;50.600;4.608;2023-05-07T22:17:44;23.30;79.10
22416;DHT22;12204;50.600;4.608;2023-05-07T22:22:47;23.40;79.30
22416;DHT22;12204;50.600;4.608;2023-05-07T22:27:53;23.30;79.10
22416;DHT22;12204;50.600;4.608;2023-05-07T22:32:58;23.30;79.30
22416;DHT22;12204;50.600;4.608;2023-05-07T22:38:02;23.30;79.30
22416;DHT22;12204;50.600;4.608;2023-05-07T22:43:05;23.30;79.60
22416;DHT22;12204;50.600;4.608;2023-05-07T22:48:10;23.30;79.30
22416;DHT22;12204;50.600;4.608;2023-05-07T22:53:14;23.30;79.50
22416;DHT22;12204;50.600;4.608;2023-05-07T22:58:17;23.30;79.70
22416;DHT22;12204;50.600;4.608;2023-05-07T23:03:22;23.40;79.90
22416;DHT22;12204;50.600;4.608;2023-05-07T23:08:25;23.40;79.80
22416;DHT22;12204;50.600;4.608;2023-05-07T23:13:29;23.40;79.70
22416;DHT22;12204;50.600;4.608;2023-05-07T23:18:34;23.40;79.70
22416;DHT22;12204;50.600;4.608;2023-05-07T23:23:37;23.40;79.70
22416;DHT22;12204;50.600;4.608;2023-05-07T23:28:40;23.40;79.60
22416;DHT22;12204;50.600;4.608;2023-05-07T23:33:45;23.40;79.60
22416;DHT22;12204;50.600;4.608;2023-05-07T23:38:49;23.40;79.60
22416;DHT22;12204;50.600;4.608;2023-05-07T23:43:52;23.40;79.70
22416;DHT22;12204;50.600;4.608;2023-05-07T23:48:57;23.40;79.60
22416;DHT22;12204;50.600;4.608;2023-05-07T23:54:01;23.40;79.50
22416;DHT22;12204;50.600;4.608;2023-05-07T23:59:04;23.40;79.60
